Terminal Aerodrome Forecast
Issued by NWS

Home | Current Version | Previous Version | Text Only | Print | Product List | Glossary On
Versions: 1 2 3 4 5 6 7 8 9 10 11 12 13 14 15 16 17 18 19 20 21 22 23 24 25 26 27 28 29 30 31 32 33 34 35 36 37 38 39
000
FTUS43 KILX 191702 AAC
TAFDEC
TAF AMD
KDEC 191702Z 1917/2012 11008KT 6SM -RA VCTS FEW015CB BKN060
      TEMPO 1917/1919 1SM TSRA OVC025CB
     FM191900 12006KT 6SM -SHRA BR VCTS OVC030CB
     FM200200 03006KT 4SM -RA BR OVC020
     FM200900 01006KT P6SM BKN005=

USA.gov is the U.S. government's official web portal to all federal, state and local government web resources and services.